Meteo Giornale » Osservazioni meteo Namibia » Ondangwa
ore: 15:00 - Osservazioni Meteo Ondangwa
Lat. 17° 53' S Lon. 15° 58' E Alt. 1095 metri s.l.m.
35 °C
Sereno
Temp. 24 Ore
14 °C
35 °C
Ovest/Nord-Ovest
13 Km/h
Dew point 4 °C
Umidità 14 %
Visibilità 10 Km
Il sole sorge alle ore 07:03
Il sole tramonta alle ore 18:49
| Data e Ora | Cielo e Fenomeni | T °C | DP °C | Um. % | Pres. hPa | Vis. km | Vento km/h | |
|---|---|---|---|---|---|---|---|---|
| Oggi h: 15:00 | Sereno | 35 | 4 | 14 | 1014 | 10 | O/NO 13 | |
| Oggi h: 14:00 | Sereno | 35 | 5 | 15 | 1015 | 10 | N/NO 13 | |
| Oggi h: 13:00 | Sereno | 34 | 5 | 16 | 1016 | 10 | N 11.1 | |
| Oggi h: 12:00 | Sereno | 31 | 6 | 20 | 1017 | 10 | N 5.5 | |
| Oggi h: 11:00 | Sereno | 27 | 6 | 26 | 1018 | 10 | N 3.7 | |
| Oggi h: 10:00 | Sereno | 24 | 7 | 33 | 1018 | 10 | N 3.7 | |
| Oggi h: 09:00 | Sereno | 20 | 7 | 42 | 1018 | 10 | N 3.7 | |
| Oggi h: 08:00 | Sereno | 16 | 7 | 55 | 1018 | 10 | N 3.7 | |
| Oggi h: 07:00 | Sereno | 14 | 6 | 58 | 1017 | 11 | N 5.5 | |
| Oggi h: 06:00 | Sereno | 14 | 6 | 58 | 1016 | 10 | N 1.8 | |
| Oggi h: 05:00 | Sereno | 16 | 7 | 55 | 1016 | 10 | N 3.7 | |
| Oggi h: 04:00 | Sereno | 19 | 6 | 42 | 1016 | 10 | S/SE 9.3 | |
| Oggi h: 03:00 | Sereno | 19 | 4 | 37 | 1016 | 10 | S/SO 7.4 | |
| Oggi h: 02:00 | Sereno | 20 | 1 | 28 | 1016 | 10 | SO 7.4 | |
| Oggi h: 01:00 | Sereno | 22 | 0 | 23 | 1016 | 0 | S 7.4 | |
| Oggi h: 00:00 | Sereno | 20 | 1 | 28 | 1015 | 0 | E/NE 9.3 | |
| Ieri h: 23:00 | Sereno | 20 | 1 | 28 | 1015 | 0 | N 3.7 | |
| Ieri h: 22:00 | Sereno | 21 | 1 | 26 | 1015 | 0 | N 1.8 | |
| Ieri h: 21:00 | Sereno | 25 | 0 | 19 | 1015 | 0 | N 5.5 | |
| Ieri h: 20:00 | Sereno | 27 | 0 | 17 | 1014 | 0 | N 5.5 | |
| Ieri h: 19:00 | Sereno | 28 | 0 | 16 | 1013 | 0 | N 1.8 | |
| Ieri h: 18:00 | Sereno | 34 | 1 | 12 | 1013 | 0 | N 1.8 | |
| Ieri h: 17:00 | Sereno | 35 | 0 | 10 | 1013 | 0 | N 5.5 | |
| Ieri h: 16:00 | Sereno | 35 | 0 | 10 | 1013 | 10 | O/NO 7.4 | |



